CST,Max TemperatureF,Mean TemperatureF,Min TemperatureF,Max Dew PointF,MeanDew PointF,Min DewpointF,Max Humidity, Mean Humidity, Min Humidity, Max Sea Level PressureIn, Mean Sea Level PressureIn, Min Sea Level PressureIn, Max VisibilityMiles, Mean VisibilityMiles, Min VisibilityMiles, Max Wind SpeedMPH, Mean Wind SpeedMPH, Max Gust SpeedMPH,PrecipitationIn, CloudCover, Events, WindDirDegrees
2013-12-1,69,52,35,48,44,37,100,71,42,30.28,30.16,30.03,10,9,5,12,2,14,0.00,2,,338
2013-12-2,73,59,45,59,51,44,100,72,44,30.01,29.89,29.81,10,9,3,13,5,15,0.00,4,,194
2013-12-3,74,67,59,65,63,60,100,84,68,29.87,29.82,29.78,10,8,1,20,9,25,0.24,6,Rain,198
2013-12-4,78,72,65,71,68,64,100,87,74,29.99,29.92,29.86,10,7,1,18,9,24,T,7,,192
2013-12-5,78,75,72,72,72,71,100,90,79,30.05,30.00,29.97,10,8,4,22,14,31,0.02,8,Rain,186
2013-12-6,80,65,50,72,66,49,100,87,74,30.17,30.06,29.98,10,7,4,24,14,31,0.53,7,Rain-Thunderstorm,210
2013-12-7,50,45,40,48,41,39,100,95,89,30.31,30.24,30.17,10,6,2,18,12,23,0.12,8,Rain,8
2013-12-8,69,56,42,68,54,42,100,94,87,30.23,30.12,30.04,10,4,0,12,5,14,0.01,8,Fog-Rain,69
2013-12-9,69,63,56,69,58,54,100,83,66,30.14,30.08,30.03,10,7,1,13,6,20,T,7,Rain,7
2013-12-10,59,48,37,56,40,33,100,80,60,30.36,30.25,30.05,10,8,3,23,11,29,0.14,6,Rain,352
2013-12-11,63,49,35,40,34,31,89,63,36,30.41,30.36,30.31,10,10,10,14,6,16,0.00,4,,19
2013-12-12,56,45,34,33,27,20,76,51,26,30.51,30.43,30.38,10,10,10,20,10,24,0.00,2,,11
2013-12-13,59,46,32,44,35,23,77,63,49,30.36,30.21,30.02,10,10,10,13,7,16,0.00,4,,79
2013-12-14,76,63,50,66,59,45,97,83,68,30.02,29.91,29.83,10,10,8,23,7,29,0.06,7,Rain,227
2013-12-15,50,41,31,46,35,30,96,76,56,30.31,30.18,30.02,10,10,7,24,11,30,0.00,5,,336
2013-12-16,60,45,30,39,33,28,100,69,37,30.36,30.30,30.26,10,10,7,9,2,12,0.00,0,,336
2013-12-17,65,48,31,39,34,28,100,64,27,30.34,30.29,30.24,10,10,10,9,3,15,0.00,0,,296
2013-12-18,66,50,34,39,36,30,100,64,28,30.38,30.30,30.26,10,10,7,14,4,17,0.00,0,,34
2013-12-19,70,54,38,57,49,36,93,76,59,30.26,30.19,30.09,10,10,8,17,8,21,0.00,2,,112
2013-12-20,76,66,56,68,64,56,100,87,73,30.13,30.07,30.01,10,9,6,18,11,24,0.00,6,,138
2013-12-21,75,72,68,72,70,68,100,91,82,29.98,29.90,29.86,10,8,5,25,16,37,0.01,8,,161
2013-12-22,73,62,51,72,56,51,100,97,93,30.13,29.99,29.85,10,4,1,28,10,43,3.45,8,Rain-Thunderstorm,358
2013-12-23,52,44,36,52,42,30,100,88,76,30.42,30.28,30.11,10,8,4,22,12,28,T,7,Rain,337
2013-12-24,51,41,30,30,27,25,92,65,38,30.51,30.43,30.39,10,10,10,20,11,26,0.00,1,,359
2013-12-25,47,37,27,32,26,23,92,67,41,30.41,30.36,30.31,10,10,10,14,5,17,0.00,3,,8
2013-12-26,54,45,35,37,31,28,76,59,41,30.37,30.32,30.28,10,10,10,15,7,21,0.00,5,,8
2013-12-27,60,51,41,34,32,28,70,51,31,30.40,30.33,30.27,10,10,10,16,10,20,0.00,5,,27
2013-12-28,52,48,43,46,44,35,100,75,50,30.25,30.10,29.96,10,5,2,17,10,22,2.76,8,Rain,24
2013-12-29,55,47,38,48,45,38,100,86,71,30.14,30.05,29.94,10,8,3,13,5,16,T,6,Rain,325
2013-12-30,57,47,37,49,44,38,100,81,62,30.32,30.20,30.12,10,10,7,8,3,12,0.00,6,,319
2013-12-31,48,45,42,46,41,36,93,85,76,30.42,30.35,30.30,10,9,4,15,8,19,0.04,7,Rain,9